sensor_id;sensor_type;location;lat;lon;timestamp;P1;durP1;ratioP1;P2;durP2;ratioP2
14121;SDS011;7139;48.114;11.442;2023-05-10T00:00:36;3.23;;;1.73;;
14121;SDS011;7139;48.114;11.442;2023-05-10T00:03:03;2.47;;;1.90;;
14121;SDS011;7139;48.114;11.442;2023-05-10T00:05:30;1.67;;;1.57;;
14121;SDS011;7139;48.114;11.442;2023-05-10T00:07:57;1.47;;;1.37;;
14121;SDS011;7139;48.114;11.442;2023-05-10T00:10:23;1.97;;;1.60;;
14121;SDS011;7139;48.114;11.442;2023-05-10T00:12:50;3.00;;;1.57;;
14121;SDS011;7139;48.114;11.442;2023-05-10T00:15:17;1.63;;;1.40;;
14121;SDS011;7139;48.114;11.442;2023-05-10T00:17:45;1.97;;;1.20;;
14121;SDS011;7139;48.114;11.442;2023-05-10T00:20:12;1.40;;;1.30;;
14121;SDS011;7139;48.114;11.442;2023-05-10T00:22:39;1.30;;;1.20;;
14121;SDS011;7139;48.114;11.442;2023-05-10T00:25:06;3.60;;;1.33;;
14121;SDS011;7139;48.114;11.442;2023-05-10T00:27:34;1.00;;;1.00;;
14121;SDS011;7139;48.114;11.442;2023-05-10T00:30:00;1.30;;;1.20;;
14121;SDS011;7139;48.114;11.442;2023-05-10T00:32:27;1.23;;;1.20;;
14121;SDS011;7139;48.114;11.442;2023-05-10T00:34:56;1.63;;;1.00;;
14121;SDS011;7139;48.114;11.442;2023-05-10T00:37:22;1.00;;;1.00;;
14121;SDS011;7139;48.114;11.442;2023-05-10T00:39:49;1.20;;;1.10;;
14121;SDS011;7139;48.114;11.442;2023-05-10T00:42:16;1.20;;;1.10;;
14121;SDS011;7139;48.114;11.442;2023-05-10T00:44:43;1.10;;;1.10;;
14121;SDS011;7139;48.114;11.442;2023-05-10T00:47:09;0.93;;;0.93;;
14121;SDS011;7139;48.114;11.442;2023-05-10T00:49:36;1.00;;;1.00;;
14121;SDS011;7139;48.114;11.442;2023-05-10T00:52:05;1.20;;;1.10;;
14121;SDS011;7139;48.114;11.442;2023-05-10T00:54:32;1.20;;;1.00;;
14121;SDS011;7139;48.114;11.442;2023-05-10T00:56:58;2.10;;;1.00;;
14121;SDS011;7139;48.114;11.442;2023-05-10T00:59:25;1.53;;;1.00;;
14121;SDS011;7139;48.114;11.442;2023-05-10T01:01:52;1.00;;;0.90;;
14121;SDS011;7139;48.114;11.442;2023-05-10T01:04:20;1.73;;;1.10;;
14121;SDS011;7139;48.114;11.442;2023-05-10T01:06:50;0.80;;;0.80;;
14121;SDS011;7139;48.114;11.442;2023-05-10T01:09:19;0.90;;;0.80;;
14121;SDS011;7139;48.114;11.442;2023-05-10T01:11:46;1.13;;;0.90;;
14121;SDS011;7139;48.114;11.442;2023-05-10T01:14:14;0.83;;;0.83;;
14121;SDS011;7139;48.114;11.442;2023-05-10T01:16:43;1.33;;;1.00;;
14121;SDS011;7139;48.114;11.442;2023-05-10T01:19:12;0.73;;;0.73;;
14121;SDS011;7139;48.114;11.442;2023-05-10T01:21:46;0.90;;;0.90;;
14121;SDS011;7139;48.114;11.442;2023-05-10T01:24:25;0.80;;;0.80;;
14121;SDS011;7139;48.114;11.442;2023-05-10T01:30:01;1.13;;;0.90;;
14121;SDS011;7139;48.114;11.442;2023-05-10T01:32:37;1.43;;;1.00;;
14121;SDS011;7139;48.114;11.442;2023-05-10T01:35:10;1.03;;;1.03;;
14121;SDS011;7139;48.114;11.442;2023-05-10T01:37:44;0.87;;;0.87;;
14121;SDS011;7139;48.114;11.442;2023-05-10T01:40:17;2.50;;;1.10;;
14121;SDS011;7139;48.114;11.442;2023-05-10T01:42:50;0.90;;;0.90;;
14121;SDS011;7139;48.114;11.442;2023-05-10T01:45:24;2.20;;;1.00;;
14121;SDS011;7139;48.114;11.442;2023-05-10T01:48:02;1.23;;;1.00;;
14121;SDS011;7139;48.114;11.442;2023-05-10T01:50:32;1.70;;;1.20;;
14121;SDS011;7139;48.114;11.442;2023-05-10T01:53:00;1.07;;;0.93;;
14121;SDS011;7139;48.114;11.442;2023-05-10T01:55:30;1.10;;;0.97;;
14121;SDS011;7139;48.114;11.442;2023-05-10T01:58:02;1.00;;;0.90;;
14121;SDS011;7139;48.114;11.442;2023-05-10T02:00:30;1.73;;;0.90;;
14121;SDS011;7139;48.114;11.442;2023-05-10T02:03:01;2.30;;;1.10;;
14121;SDS011;7139;48.114;11.442;2023-05-10T02:05:32;0.80;;;0.80;;
14121;SDS011;7139;48.114;11.442;2023-05-10T02:08:01;1.47;;;0.80;;
14121;SDS011;7139;48.114;11.442;2023-05-10T02:10:29;2.50;;;1.00;;
14121;SDS011;7139;48.114;11.442;2023-05-10T02:12:58;1.03;;;0.90;;
14121;SDS011;7139;48.114;11.442;2023-05-10T02:15:25;0.97;;;0.70;;
14121;SDS011;7139;48.114;11.442;2023-05-10T02:17:54;1.57;;;0.70;;
14121;SDS011;7139;48.114;11.442;2023-05-10T02:20:23;0.67;;;0.67;;
14121;SDS011;7139;48.114;11.442;2023-05-10T02:22:52;0.77;;;0.70;;
14121;SDS011;7139;48.114;11.442;2023-05-10T02:25:21;1.37;;;0.70;;
14121;SDS011;7139;48.114;11.442;2023-05-10T02:27:49;1.27;;;1.00;;
14121;SDS011;7139;48.114;11.442;2023-05-10T02:30:17;0.93;;;0.90;;
14121;SDS011;7139;48.114;11.442;2023-05-10T02:32:45;0.67;;;0.67;;
14121;SDS011;7139;48.114;11.442;2023-05-10T02:35:13;1.00;;;0.90;;
14121;SDS011;7139;48.114;11.442;2023-05-10T02:37:41;0.80;;;0.70;;
14121;SDS011;7139;48.114;11.442;2023-05-10T02:40:09;3.97;;;0.80;;
14121;SDS011;7139;48.114;11.442;2023-05-10T02:42:38;1.00;;;0.90;;
14121;SDS011;7139;48.114;11.442;2023-05-10T02:45:11;0.83;;;0.83;;
14121;SDS011;7139;48.114;11.442;2023-05-10T02:47:41;1.23;;;0.90;;
14121;SDS011;7139;48.114;11.442;2023-05-10T02:50:09;1.30;;;0.90;;
14121;SDS011;7139;48.114;11.442;2023-05-10T02:52:38;1.70;;;0.80;;
14121;SDS011;7139;48.114;11.442;2023-05-10T02:55:09;1.20;;;0.70;;
14121;SDS011;7139;48.114;11.442;2023-05-10T02:57:40;2.40;;;0.90;;
14121;SDS011;7139;48.114;11.442;2023-05-10T03:00:09;0.93;;;0.77;;
14121;SDS011;7139;48.114;11.442;2023-05-10T03:02:36;0.60;;;0.60;;
14121;SDS011;7139;48.114;11.442;2023-05-10T03:05:03;1.43;;;0.70;;
14121;SDS011;7139;48.114;11.442;2023-05-10T03:07:30;1.00;;;1.00;;
14121;SDS011;7139;48.114;11.442;2023-05-10T03:09:58;0.90;;;0.70;;
14121;SDS011;7139;48.114;11.442;2023-05-10T03:12:30;0.60;;;0.60;;
14121;SDS011;7139;48.114;11.442;2023-05-10T03:15:06;0.50;;;0.50;;
14121;SDS011;7139;48.114;11.442;2023-05-10T03:17:39;1.23;;;0.63;;
14121;SDS011;7139;48.114;11.442;2023-05-10T03:20:15;0.70;;;0.70;;
14121;SDS011;7139;48.114;11.442;2023-05-10T03:22:49;0.70;;;0.70;;
14121;SDS011;7139;48.114;11.442;2023-05-10T03:25:19;1.90;;;0.90;;
14121;SDS011;7139;48.114;11.442;2023-05-10T03:27:49;1.13;;;0.63;;
14121;SDS011;7139;48.114;11.442;2023-05-10T03:30:16;0.70;;;0.70;;
14121;SDS011;7139;48.114;11.442;2023-05-10T03:32:43;0.57;;;0.57;;
14121;SDS011;7139;48.114;11.442;2023-05-10T03:35:10;0.67;;;0.67;;
14121;SDS011;7139;48.114;11.442;2023-05-10T03:37:38;0.57;;;0.57;;
14121;SDS011;7139;48.114;11.442;2023-05-10T03:40:05;0.53;;;0.53;;
14121;SDS011;7139;48.114;11.442;2023-05-10T03:42:33;0.70;;;0.70;;
14121;SDS011;7139;48.114;11.442;2023-05-10T03:45:01;0.70;;;0.60;;
14121;SDS011;7139;48.114;11.442;2023-05-10T03:47:28;0.87;;;0.60;;
14121;SDS011;7139;48.114;11.442;2023-05-10T03:49:55;0.60;;;0.60;;
14121;SDS011;7139;48.114;11.442;2023-05-10T03:52:22;1.00;;;0.50;;
14121;SDS011;7139;48.114;11.442;2023-05-10T03:54:48;0.60;;;0.60;;
14121;SDS011;7139;48.114;11.442;2023-05-10T03:57:15;0.50;;;0.50;;
14121;SDS011;7139;48.114;11.442;2023-05-10T03:59:42;1.73;;;0.70;;
14121;SDS011;7139;48.114;11.442;2023-05-10T04:02:10;0.90;;;0.70;;
14121;SDS011;7139;48.114;11.442;2023-05-10T04:04:37;0.60;;;0.60;;
14121;SDS011;7139;48.114;11.442;2023-05-10T04:07:03;0.50;;;0.50;;
14121;SDS011;7139;48.114;11.442;2023-05-10T04:09:30;0.63;;;0.63;;
14121;SDS011;7139;48.114;11.442;2023-05-10T04:11:58;1.03;;;0.60;;
14121;SDS011;7139;48.114;11.442;2023-05-10T04:14:25;0.80;;;0.80;;
14121;SDS011;7139;48.114;11.442;2023-05-10T04:16:52;0.50;;;0.50;;
14121;SDS011;7139;48.114;11.442;2023-05-10T04:19:20;0.50;;;0.50;;
14121;SDS011;7139;48.114;11.442;2023-05-10T04:21:47;0.60;;;0.60;;
14121;SDS011;7139;48.114;11.442;2023-05-10T04:24:13;0.60;;;0.60;;
14121;SDS011;7139;48.114;11.442;2023-05-10T04:26:40;0.60;;;0.60;;
14121;SDS011;7139;48.114;11.442;2023-05-10T04:29:07;0.70;;;0.70;;
14121;SDS011;7139;48.114;11.442;2023-05-10T04:31:34;0.80;;;0.80;;
14121;SDS011;7139;48.114;11.442;2023-05-10T04:34:01;0.90;;;0.90;;
14121;SDS011;7139;48.114;11.442;2023-05-10T04:36:29;0.30;;;0.30;;
14121;SDS011;7139;48.114;11.442;2023-05-10T04:38:57;0.80;;;0.80;;
14121;SDS011;7139;48.114;11.442;2023-05-10T04:41:24;1.27;;;0.70;;
14121;SDS011;7139;48.114;11.442;2023-05-10T04:43:50;0.70;;;0.70;;
14121;SDS011;7139;48.114;11.442;2023-05-10T04:46:17;0.50;;;0.50;;
14121;SDS011;7139;48.114;11.442;2023-05-10T04:48:44;5.30;;;0.97;;
14121;SDS011;7139;48.114;11.442;2023-05-10T04:51:11;0.67;;;0.50;;
14121;SDS011;7139;48.114;11.442;2023-05-10T04:53:39;0.53;;;0.53;;
14121;SDS011;7139;48.114;11.442;2023-05-10T04:56:06;1.53;;;0.90;;
14121;SDS011;7139;48.114;11.442;2023-05-10T04:58:33;0.80;;;0.80;;
14121;SDS011;7139;48.114;11.442;2023-05-10T05:01:04;0.60;;;0.60;;
14121;SDS011;7139;48.114;11.442;2023-05-10T05:03:31;0.60;;;0.60;;
14121;SDS011;7139;48.114;11.442;2023-05-10T05:05:58;1.60;;;0.70;;
14121;SDS011;7139;48.114;11.442;2023-05-10T05:08:25;0.70;;;0.60;;
14121;SDS011;7139;48.114;11.442;2023-05-10T05:10:53;3.03;;;0.60;;
14121;SDS011;7139;48.114;11.442;2023-05-10T05:13:20;0.60;;;0.60;;
14121;SDS011;7139;48.114;11.442;2023-05-10T05:15:47;0.50;;;0.50;;
14121;SDS011;7139;48.114;11.442;2023-05-10T05:18:14;0.60;;;0.60;;
14121;SDS011;7139;48.114;11.442;2023-05-10T05:20:40;0.70;;;0.70;;
14121;SDS011;7139;48.114;11.442;2023-05-10T05:23:07;0.80;;;0.60;;
14121;SDS011;7139;48.114;11.442;2023-05-10T05:25:34;0.97;;;0.60;;
14121;SDS011;7139;48.114;11.442;2023-05-10T05:28:03;1.60;;;0.63;;
14121;SDS011;7139;48.114;11.442;2023-05-10T05:30:30;0.70;;;0.67;;
14121;SDS011;7139;48.114;11.442;2023-05-10T05:32:56;0.90;;;0.70;;
14121;SDS011;7139;48.114;11.442;2023-05-10T05:35:23;1.10;;;0.93;;
14121;SDS011;7139;48.114;11.442;2023-05-10T05:37:51;1.07;;;0.80;;
14121;SDS011;7139;48.114;11.442;2023-05-10T05:40:17;1.20;;;0.73;;
14121;SDS011;7139;48.114;11.442;2023-05-10T05:42:45;2.57;;;0.90;;
14121;SDS011;7139;48.114;11.442;2023-05-10T05:45:13;1.40;;;0.83;;
14121;SDS011;7139;48.114;11.442;2023-05-10T05:47:40;2.50;;;0.80;;
14121;SDS011;7139;48.114;11.442;2023-05-10T05:50:07;1.57;;;0.90;;
14121;SDS011;7139;48.114;11.442;2023-05-10T05:52:34;0.80;;;0.80;;
14121;SDS011;7139;48.114;11.442;2023-05-10T05:55:01;1.50;;;1.10;;
14121;SDS011;7139;48.114;11.442;2023-05-10T05:57:28;1.40;;;1.30;;
14121;SDS011;7139;48.114;11.442;2023-05-10T05:59:56;1.50;;;1.10;;
14121;SDS011;7139;48.114;11.442;2023-05-10T06:02:24;0.70;;;0.70;;
14121;SDS011;7139;48.114;11.442;2023-05-10T06:04:50;1.43;;;0.70;;
14121;SDS011;7139;48.114;11.442;2023-05-10T06:07:17;0.70;;;0.70;;
14121;SDS011;7139;48.114;11.442;2023-05-10T06:09:44;1.10;;;0.80;;
14121;SDS011;7139;48.114;11.442;2023-05-10T06:12:11;1.60;;;1.20;;
14121;SDS011;7139;48.114;11.442;2023-05-10T06:14:37;1.80;;;0.90;;
14121;SDS011;7139;48.114;11.442;2023-05-10T06:17:04;1.33;;;0.70;;
14121;SDS011;7139;48.114;11.442;2023-05-10T06:19:33;0.90;;;0.90;;
14121;SDS011;7139;48.114;11.442;2023-05-10T06:21:59;1.63;;;0.90;;
14121;SDS011;7139;48.114;11.442;2023-05-10T06:24:26;1.23;;;0.90;;
14121;SDS011;7139;48.114;11.442;2023-05-10T06:26:53;2.20;;;0.83;;
14121;SDS011;7139;48.114;11.442;2023-05-10T06:29:20;0.93;;;0.93;;
14121;SDS011;7139;48.114;11.442;2023-05-10T06:31:46;2.20;;;1.00;;
14121;SDS011;7139;48.114;11.442;2023-05-10T06:34:13;1.03;;;0.93;;
14121;SDS011;7139;48.114;11.442;2023-05-10T06:36:41;1.00;;;1.00;;
14121;SDS011;7139;48.114;11.442;2023-05-10T06:39:08;2.27;;;1.00;;
14121;SDS011;7139;48.114;11.442;2023-05-10T06:41:36;0.90;;;0.90;;
14121;SDS011;7139;48.114;11.442;2023-05-10T06:44:03;1.23;;;1.03;;
14121;SDS011;7139;48.114;11.442;2023-05-10T06:46:30;1.93;;;1.17;;
14121;SDS011;7139;48.114;11.442;2023-05-10T06:48:57;2.80;;;1.10;;
14121;SDS011;7139;48.114;11.442;2023-05-10T06:51:24;2.30;;;1.10;;
14121;SDS011;7139;48.114;11.442;2023-05-10T06:53:52;2.00;;;1.30;;
14121;SDS011;7139;48.114;11.442;2023-05-10T06:56:19;1.30;;;1.20;;
14121;SDS011;7139;48.114;11.442;2023-05-10T06:58:46;1.60;;;1.40;;
14121;SDS011;7139;48.114;11.442;2023-05-10T07:01:13;1.00;;;1.00;;
14121;SDS011;7139;48.114;11.442;2023-05-10T07:03:40;1.30;;;1.20;;
14121;SDS011;7139;48.114;11.442;2023-05-10T07:06:06;2.50;;;1.23;;
14121;SDS011;7139;48.114;11.442;2023-05-10T07:08:33;1.30;;;1.20;;
14121;SDS011;7139;48.114;11.442;2023-05-10T07:11:02;1.47;;;1.37;;
14121;SDS011;7139;48.114;11.442;2023-05-10T07:13:30;1.57;;;1.30;;
14121;SDS011;7139;48.114;11.442;2023-05-10T07:15:57;1.70;;;1.37;;
14121;SDS011;7139;48.114;11.442;2023-05-10T07:18:24;1.30;;;1.20;;
14121;SDS011;7139;48.114;11.442;2023-05-10T07:20:51;1.47;;;1.20;;
14121;SDS011;7139;48.114;11.442;2023-05-10T07:23:18;2.23;;;1.20;;
14121;SDS011;7139;48.114;11.442;2023-05-10T07:25:45;1.20;;;1.10;;
14121;SDS011;7139;48.114;11.442;2023-05-10T07:28:14;2.00;;;1.23;;
14121;SDS011;7139;48.114;11.442;2023-05-10T07:30:41;2.07;;;1.10;;
14121;SDS011;7139;48.114;11.442;2023-05-10T07:33:08;1.27;;;1.17;;
14121;SDS011;7139;48.114;11.442;2023-05-10T07:35:36;2.10;;;1.30;;
14121;SDS011;7139;48.114;11.442;2023-05-10T07:38:03;1.47;;;1.37;;
14121;SDS011;7139;48.114;11.442;2023-05-10T07:40:29;1.73;;;1.30;;
14121;SDS011;7139;48.114;11.442;2023-05-10T07:42:57;1.40;;;1.30;;
14121;SDS011;7139;48.114;11.442;2023-05-10T07:45:26;1.97;;;1.50;;
14121;SDS011;7139;48.114;11.442;2023-05-10T07:47:52;2.60;;;1.17;;
14121;SDS011;7139;48.114;11.442;2023-05-10T07:50:19;1.97;;;1.20;;
14121;SDS011;7139;48.114;11.442;2023-05-10T07:52:46;1.30;;;1.20;;
14121;SDS011;7139;48.114;11.442;2023-05-10T07:55:13;2.67;;;1.20;;
14121;SDS011;7139;48.114;11.442;2023-05-10T07:57:41;1.07;;;1.00;;
14121;SDS011;7139;48.114;11.442;2023-05-10T08:00:08;1.30;;;1.20;;
14121;SDS011;7139;48.114;11.442;2023-05-10T08:02:39;1.33;;;1.20;;
14121;SDS011;7139;48.114;11.442;2023-05-10T08:05:07;1.27;;;1.13;;
14121;SDS011;7139;48.114;11.442;2023-05-10T08:07:34;1.00;;;1.00;;
14121;SDS011;7139;48.114;11.442;2023-05-10T08:10:01;1.33;;;1.10;;
14121;SDS011;7139;48.114;11.442;2023-05-10T08:12:28;0.97;;;0.97;;
14121;SDS011;7139;48.114;11.442;2023-05-10T08:14:55;1.57;;;1.23;;
14121;SDS011;7139;48.114;11.442;2023-05-10T08:17:22;3.20;;;1.27;;
14121;SDS011;7139;48.114;11.442;2023-05-10T08:19:50;2.10;;;1.40;;
14121;SDS011;7139;48.114;11.442;2023-05-10T08:22:16;1.33;;;1.07;;
14121;SDS011;7139;48.114;11.442;2023-05-10T08:24:43;1.70;;;1.10;;
14121;SDS011;7139;48.114;11.442;2023-05-10T08:27:10;1.30;;;1.20;;
14121;SDS011;7139;48.114;11.442;2023-05-10T08:29:37;0.97;;;0.87;;
14121;SDS011;7139;48.114;11.442;2023-05-10T08:32:04;3.10;;;1.30;;
14121;SDS011;7139;48.114;11.442;2023-05-10T08:34:30;2.43;;;1.00;;
14121;SDS011;7139;48.114;11.442;2023-05-10T08:36:59;1.10;;;1.00;;
14121;SDS011;7139;48.114;11.442;2023-05-10T08:39:25;1.10;;;1.00;;
14121;SDS011;7139;48.114;11.442;2023-05-10T08:41:52;1.80;;;1.10;;
14121;SDS011;7139;48.114;11.442;2023-05-10T08:44:24;0.93;;;0.90;;
14121;SDS011;7139;48.114;11.442;2023-05-10T08:46:51;0.80;;;0.80;;
14121;SDS011;7139;48.114;11.442;2023-05-10T08:49:20;1.63;;;0.80;;
14121;SDS011;7139;48.114;11.442;2023-05-10T08:51:49;1.00;;;0.90;;
14121;SDS011;7139;48.114;11.442;2023-05-10T08:54:22;1.27;;;0.90;;
14121;SDS011;7139;48.114;11.442;2023-05-10T08:56:49;2.07;;;0.80;;
14121;SDS011;7139;48.114;11.442;2023-05-10T08:59:16;2.20;;;0.70;;
14121;SDS011;7139;48.114;11.442;2023-05-10T09:01:43;1.60;;;1.00;;
14121;SDS011;7139;48.114;11.442;2023-05-10T09:04:13;1.47;;;0.90;;
14121;SDS011;7139;48.114;11.442;2023-05-10T09:06:39;1.20;;;0.73;;
14121;SDS011;7139;48.114;11.442;2023-05-10T09:09:07;1.30;;;0.90;;
14121;SDS011;7139;48.114;11.442;2023-05-10T09:11:35;0.93;;;0.93;;
14121;SDS011;7139;48.114;11.442;2023-05-10T09:14:02;1.10;;;1.00;;
14121;SDS011;7139;48.114;11.442;2023-05-10T09:16:29;1.10;;;1.00;;
14121;SDS011;7139;48.114;11.442;2023-05-10T09:18:56;0.80;;;0.80;;
14121;SDS011;7139;48.114;11.442;2023-05-10T09:21:22;0.97;;;0.93;;
14121;SDS011;7139;48.114;11.442;2023-05-10T09:23:49;2.33;;;1.20;;
14121;SDS011;7139;48.114;11.442;2023-05-10T09:26:21;2.23;;;1.03;;
14121;SDS011;7139;48.114;11.442;2023-05-10T09:28:51;0.90;;;0.87;;
14121;SDS011;7139;48.114;11.442;2023-05-10T09:31:18;2.03;;;1.03;;
14121;SDS011;7139;48.114;11.442;2023-05-10T09:33:45;1.33;;;1.03;;
14121;SDS011;7139;48.114;11.442;2023-05-10T09:36:12;1.70;;;1.00;;
14121;SDS011;7139;48.114;11.442;2023-05-10T09:38:46;2.30;;;1.03;;
14121;SDS011;7139;48.114;11.442;2023-05-10T09:41:17;1.90;;;1.23;;
14121;SDS011;7139;48.114;11.442;2023-05-10T09:43:45;1.50;;;1.07;;
14121;SDS011;7139;48.114;11.442;2023-05-10T09:46:13;0.90;;;0.87;;
14121;SDS011;7139;48.114;11.442;2023-05-10T09:48:41;1.13;;;1.00;;
14121;SDS011;7139;48.114;11.442;2023-05-10T09:51:09;1.73;;;0.93;;
14121;SDS011;7139;48.114;11.442;2023-05-10T09:53:36;2.90;;;1.20;;
14121;SDS011;7139;48.114;11.442;2023-05-10T09:56:03;1.83;;;0.97;;
14121;SDS011;7139;48.114;11.442;2023-05-10T09:58:30;2.00;;;1.10;;
14121;SDS011;7139;48.114;11.442;2023-05-10T10:00:57;1.30;;;0.87;;
14121;SDS011;7139;48.114;11.442;2023-05-10T10:03:25;1.13;;;1.07;;
14121;SDS011;7139;48.114;11.442;2023-05-10T10:05:52;1.90;;;1.10;;
14121;SDS011;7139;48.114;11.442;2023-05-10T10:08:21;2.60;;;1.10;;
14121;SDS011;7139;48.114;11.442;2023-05-10T10:10:48;1.47;;;0.73;;
14121;SDS011;7139;48.114;11.442;2023-05-10T10:13:16;1.33;;;1.00;;
14121;SDS011;7139;48.114;11.442;2023-05-10T10:15:42;1.43;;;1.00;;
14121;SDS011;7139;48.114;11.442;2023-05-10T10:18:12;0.70;;;0.70;;
14121;SDS011;7139;48.114;11.442;2023-05-10T10:20:41;2.97;;;1.10;;
14121;SDS011;7139;48.114;11.442;2023-05-10T10:23:10;1.00;;;0.90;;
14121;SDS011;7139;48.114;11.442;2023-05-10T10:25:37;3.57;;;0.97;;
14121;SDS011;7139;48.114;11.442;2023-05-10T10:28:08;1.60;;;0.90;;
14121;SDS011;7139;48.114;11.442;2023-05-10T10:30:43;1.23;;;0.97;;
14121;SDS011;7139;48.114;11.442;2023-05-10T10:33:30;1.30;;;0.97;;
14121;SDS011;7139;48.114;11.442;2023-05-10T10:36:06;1.80;;;0.90;;
14121;SDS011;7139;48.114;11.442;2023-05-10T10:38:37;4.63;;;1.10;;
14121;SDS011;7139;48.114;11.442;2023-05-10T10:41:27;1.87;;;1.10;;
14121;SDS011;7139;48.114;11.442;2023-05-10T10:46:59;5.77;;;1.93;;
14121;SDS011;7139;48.114;11.442;2023-05-10T10:49:42;1.60;;;1.50;;
14121;SDS011;7139;48.114;11.442;2023-05-10T10:52:25;2.83;;;1.93;;
14121;SDS011;7139;48.114;11.442;2023-05-10T10:54:58;2.70;;;1.90;;
14121;SDS011;7139;48.114;11.442;2023-05-10T10:57:27;4.33;;;1.90;;
14121;SDS011;7139;48.114;11.442;2023-05-10T11:02:53;4.77;;;1.80;;
14121;SDS011;7139;48.114;11.442;2023-05-10T11:05:32;2.40;;;1.67;;
14121;SDS011;7139;48.114;11.442;2023-05-10T11:08:07;3.30;;;1.70;;
14121;SDS011;7139;48.114;11.442;2023-05-10T11:10:36;2.23;;;1.63;;
14121;SDS011;7139;48.114;11.442;2023-05-10T11:13:03;2.50;;;1.50;;
14121;SDS011;7139;48.114;11.442;2023-05-10T11:15:31;2.43;;;1.70;;
14121;SDS011;7139;48.114;11.442;2023-05-10T11:17:58;4.23;;;1.70;;
14121;SDS011;7139;48.114;11.442;2023-05-10T11:20:27;3.77;;;1.90;;
14121;SDS011;7139;48.114;11.442;2023-05-10T11:22:58;4.47;;;1.83;;
14121;SDS011;7139;48.114;11.442;2023-05-10T11:25:41;3.03;;;1.73;;
14121;SDS011;7139;48.114;11.442;2023-05-10T11:28:09;4.03;;;2.10;;
14121;SDS011;7139;48.114;11.442;2023-05-10T11:30:37;2.90;;;2.10;;
14121;SDS011;7139;48.114;11.442;2023-05-10T11:33:05;3.37;;;1.97;;
14121;SDS011;7139;48.114;11.442;2023-05-10T11:35:36;4.40;;;2.00;;
14121;SDS011;7139;48.114;11.442;2023-05-10T11:38:05;1.80;;;1.30;;
14121;SDS011;7139;48.114;11.442;2023-05-10T11:40:33;2.70;;;1.30;;
14121;SDS011;7139;48.114;11.442;2023-05-10T11:43:00;3.87;;;1.50;;
14121;SDS011;7139;48.114;11.442;2023-05-10T11:45:28;1.20;;;1.07;;
14121;SDS011;7139;48.114;11.442;2023-05-10T11:47:56;1.73;;;1.10;;
14121;SDS011;7139;48.114;11.442;2023-05-10T11:50:23;1.30;;;1.20;;
14121;SDS011;7139;48.114;11.442;2023-05-10T11:52:51;1.33;;;1.20;;
14121;SDS011;7139;48.114;11.442;2023-05-10T11:55:18;3.60;;;1.50;;
14121;SDS011;7139;48.114;11.442;2023-05-10T11:57:46;1.93;;;1.60;;
14121;SDS011;7139;48.114;11.442;2023-05-10T12:00:14;2.50;;;1.60;;
14121;SDS011;7139;48.114;11.442;2023-05-10T12:02:41;4.67;;;1.60;;
14121;SDS011;7139;48.114;11.442;2023-05-10T12:05:08;2.83;;;1.73;;
14121;SDS011;7139;48.114;11.442;2023-05-10T12:07:36;2.77;;;1.60;;
14121;SDS011;7139;48.114;11.442;2023-05-10T12:10:03;2.43;;;1.40;;
14121;SDS011;7139;48.114;11.442;2023-05-10T12:12:38;3.53;;;1.83;;
14121;SDS011;7139;48.114;11.442;2023-05-10T12:15:08;2.37;;;1.80;;
14121;SDS011;7139;48.114;11.442;2023-05-10T12:17:37;2.33;;;1.93;;
14121;SDS011;7139;48.114;11.442;2023-05-10T12:20:17;3.03;;;1.87;;
14121;SDS011;7139;48.114;11.442;2023-05-10T12:22:46;2.00;;;1.80;;
14121;SDS011;7139;48.114;11.442;2023-05-10T12:25:15;4.97;;;1.90;;
14121;SDS011;7139;48.114;11.442;2023-05-10T12:27:47;2.57;;;1.60;;
14121;SDS011;7139;48.114;11.442;2023-05-10T12:30:19;2.60;;;1.53;;
14121;SDS011;7139;48.114;11.442;2023-05-10T12:32:47;2.53;;;1.40;;
14121;SDS011;7139;48.114;11.442;2023-05-10T12:35:14;2.57;;;1.43;;
14121;SDS011;7139;48.114;11.442;2023-05-10T12:37:41;4.00;;;2.70;;
14121;SDS011;7139;48.114;11.442;2023-05-10T12:40:09;7.60;;;4.63;;
14121;SDS011;7139;48.114;11.442;2023-05-10T12:42:37;7.20;;;5.67;;
14121;SDS011;7139;48.114;11.442;2023-05-10T12:45:05;9.60;;;7.50;;
14121;SDS011;7139;48.114;11.442;2023-05-10T12:47:34;6.43;;;4.43;;
14121;SDS011;7139;48.114;11.442;2023-05-10T12:50:02;4.20;;;2.47;;
14121;SDS011;7139;48.114;11.442;2023-05-10T12:52:29;3.43;;;2.57;;
14121;SDS011;7139;48.114;11.442;2023-05-10T12:54:57;3.63;;;1.90;;
14121;SDS011;7139;48.114;11.442;2023-05-10T12:57:24;3.03;;;1.50;;
14121;SDS011;7139;48.114;11.442;2023-05-10T12:59:50;3.07;;;1.77;;
14121;SDS011;7139;48.114;11.442;2023-05-10T13:02:17;2.13;;;1.60;;
14121;SDS011;7139;48.114;11.442;2023-05-10T13:04:46;2.33;;;1.43;;
14121;SDS011;7139;48.114;11.442;2023-05-10T13:07:13;1.90;;;1.60;;
14121;SDS011;7139;48.114;11.442;2023-05-10T13:09:40;1.50;;;1.40;;
14121;SDS011;7139;48.114;11.442;2023-05-10T13:12:06;3.63;;;1.40;;
14121;SDS011;7139;48.114;11.442;2023-05-10T13:14:33;1.70;;;1.50;;
14121;SDS011;7139;48.114;11.442;2023-05-10T13:17:00;1.97;;;1.67;;
14121;SDS011;7139;48.114;11.442;2023-05-10T13:19:27;2.43;;;1.70;;
14121;SDS011;7139;48.114;11.442;2023-05-10T13:21:55;1.47;;;1.37;;
14121;SDS011;7139;48.114;11.442;2023-05-10T13:24:22;3.20;;;2.90;;
14121;SDS011;7139;48.114;11.442;2023-05-10T13:26:48;3.03;;;1.90;;
14121;SDS011;7139;48.114;11.442;2023-05-10T13:29:15;2.10;;;1.90;;
14121;SDS011;7139;48.114;11.442;2023-05-10T13:31:43;3.17;;;1.67;;
14121;SDS011;7139;48.114;11.442;2023-05-10T13:34:10;1.30;;;1.20;;
14121;SDS011;7139;48.114;11.442;2023-05-10T13:36:36;1.40;;;1.30;;
14121;SDS011;7139;48.114;11.442;2023-05-10T13:39:04;1.73;;;1.20;;
14121;SDS011;7139;48.114;11.442;2023-05-10T13:41:31;1.63;;;1.40;;
14121;SDS011;7139;48.114;11.442;2023-05-10T13:43:58;1.50;;;1.40;;
14121;SDS011;7139;48.114;11.442;2023-05-10T13:46:25;1.67;;;1.57;;
14121;SDS011;7139;48.114;11.442;2023-05-10T13:48:52;1.40;;;1.30;;
14121;SDS011;7139;48.114;11.442;2023-05-10T13:51:19;1.73;;;1.43;;
14121;SDS011;7139;48.114;11.442;2023-05-10T13:53:46;1.87;;;1.40;;
14121;SDS011;7139;48.114;11.442;2023-05-10T13:56:14;1.60;;;1.50;;
14121;SDS011;7139;48.114;11.442;2023-05-10T13:58:41;2.00;;;1.50;;
14121;SDS011;7139;48.114;11.442;2023-05-10T14:01:08;2.50;;;1.80;;
14121;SDS011;7139;48.114;11.442;2023-05-10T14:03:35;2.37;;;1.90;;
14121;SDS011;7139;48.114;11.442;2023-05-10T14:06:01;1.67;;;1.57;;
14121;SDS011;7139;48.114;11.442;2023-05-10T14:08:28;5.20;;;1.90;;
14121;SDS011;7139;48.114;11.442;2023-05-10T14:10:55;2.70;;;1.40;;
14121;SDS011;7139;48.114;11.442;2023-05-10T14:13:23;2.10;;;1.50;;
14121;SDS011;7139;48.114;11.442;2023-05-10T14:15:50;2.13;;;1.50;;
14121;SDS011;7139;48.114;11.442;2023-05-10T14:18:18;1.40;;;1.30;;
14121;SDS011;7139;48.114;11.442;2023-05-10T14:20:45;1.93;;;1.33;;
14121;SDS011;7139;48.114;11.442;2023-05-10T14:23:12;1.53;;;1.20;;
14121;SDS011;7139;48.114;11.442;2023-05-10T14:25:39;1.50;;;1.40;;
14121;SDS011;7139;48.114;11.442;2023-05-10T14:28:06;2.27;;;1.30;;
14121;SDS011;7139;48.114;11.442;2023-05-10T14:30:34;1.13;;;1.03;;
14121;SDS011;7139;48.114;11.442;2023-05-10T14:33:01;1.20;;;1.10;;
14121;SDS011;7139;48.114;11.442;2023-05-10T14:35:28;1.80;;;1.30;;
14121;SDS011;7139;48.114;11.442;2023-05-10T14:37:56;3.07;;;1.20;;
14121;SDS011;7139;48.114;11.442;2023-05-10T14:40:23;2.00;;;1.30;;
14121;SDS011;7139;48.114;11.442;2023-05-10T14:42:51;1.40;;;1.30;;
14121;SDS011;7139;48.114;11.442;2023-05-10T14:45:18;2.53;;;1.30;;
14121;SDS011;7139;48.114;11.442;2023-05-10T14:47:47;1.30;;;1.20;;
14121;SDS011;7139;48.114;11.442;2023-05-10T14:50:14;1.40;;;1.30;;
14121;SDS011;7139;48.114;11.442;2023-05-10T14:52:41;1.83;;;1.37;;
14121;SDS011;7139;48.114;11.442;2023-05-10T14:55:08;1.53;;;1.30;;
14121;SDS011;7139;48.114;11.442;2023-05-10T14:57:35;1.67;;;1.43;;
14121;SDS011;7139;48.114;11.442;2023-05-10T15:00:02;1.30;;;1.20;;
14121;SDS011;7139;48.114;11.442;2023-05-10T15:02:30;1.70;;;1.60;;